ADDS METAR Data INFO
IDs: Format: Raw Decoded Include TAF

Data at: 1751 UTC 21 Oct 2017

KRYN 211645Z 00000KT 10 CLR 22/08 A3005
KRYN 211545Z 00000KT 10 CLR 19/06 A3003
KRYN 211445Z 07004KT 10 CLR 16/05 A3002
KRYN 211345Z 00000KT 10 CLR 11/03 A2998
KRYN 211247Z 00000KT 10 CLR 13/03 A2997
KRYN 210252Z 25009KT 10 CLR 25/03 A2986 RMK LAST
KRYN 210159Z 27005KT 10 CLR 25/05 A2984
KRYN 210051Z 22009KT 10 CLR 28/04 A2980
KRYN 202345Z 24012G16 10 CLR 31/04 A2980
KRYN 202245Z 22011 10SM CLR 31/03 A2981
KRYN 202145Z 27014G18 10SM CLR 32/02 A2982
KRYN 202045Z 20013G19KT 10SM CLR 32/03 A2983
KRYN 201945Z 20017G25KT 10SM CLR 32/02 A2985
KRYN 201851Z 22018G22KT 10SM CLR 31/03 A2988
KRYN 201751Z 00000KT 10SM CLR 29/03 A2991
KRYN 201650Z 00000KT 10SM CLR 27/03 A2992
KRYN 201545Z 10005KT 10SM CLR 23/04 A2993
KRYN 201445Z 13004KT 10SM CLR 20/03 A2992
KRYN 201345Z 05005KT 10SM CLR 16/02 A2990
KRYN 201245Z 12003KT 10SM CLR 16/01 A2989